หน้าหลัก
METAR-TAF:

METAR-TAF

ท่าอากาศยาน :

Ljungbyhed, สวีเดน

ละติจูด: 56-04N, ลองจิจูด: 013-12E, ความสูง: 43 ม.

การสังเกตสภาพอากาศปัจจุบัน

รายงานได้ทำขึ้นเมื่อ 43 นาทีที่แล้ว ณ เวลา 23:20 UTC
ลมสงบ
อุณหภูมิ 12°C
ความชื้น 100%
ความกดอากาศ 1018 hPa
ทัศนวิสัย 10 กม. หรือมากกว่า
หมอกน้ำค้าง,

METAR: ESTL 192320Z AUTO 00000KT 9999 BR NCD 12/12 Q1018

เวลา: 02:03 (00:03 UTC)


TAF: หายไป

สังเกตการณ์สภาพอากาศและพยากรณ์อากาศของสนามบินมากกว่า 4000 แห่ง (รายงาน METAR และ TAF).

สถานีที่ดูได้จะแสดงไว้ด้วยจุดสีเหลืองและสีแดงบนแผนที่.

เลื่อนเมาส์ไปเหนือจุดเพื่อดูชื่อสถานี.

แล้วคลิกเพื่อดูสังเกตการณ์และการพยากรณ์สภาพอากาศ.

ในการเปลี่ยนแผนที่: คลิกที่ปุ่มสีเขียวที่มีกากบาทสีดำเพื่อซูมเข้า; ที่ปุ่มสีเขียวที่มีขีดเพื่อซูมออก; หรือที่ลูกศรสีเขียวเพื่อไปยังแผนที่ที่อยู่ติดกัน.


METAR-TAF: